createdAt,value
2019-01-30T00:00:35.771Z,2.95
2019-01-30T00:03:03.050Z,3.70
2019-01-30T00:05:30.287Z,5.05
2019-01-30T00:07:57.502Z,3.52
2019-01-30T00:10:24.810Z,3.98
2019-01-30T00:12:52.033Z,3.70
2019-01-30T00:15:19.306Z,4.12
2019-01-30T00:17:46.535Z,4.00
2019-01-30T00:20:13.746Z,4.55
2019-01-30T00:22:40.973Z,3.98
2019-01-30T00:25:09.245Z,4.45
2019-01-30T00:27:36.464Z,3.95
2019-01-30T00:30:05.210Z,4.17
2019-01-30T00:32:32.433Z,4.15
2019-01-30T00:34:59.654Z,5.05
2019-01-30T00:37:26.883Z,4.87
2019-01-30T00:39:54.094Z,4.30
2019-01-30T00:42:21.307Z,3.70
2019-01-30T00:44:48.522Z,3.37
2019-01-30T00:47:16.181Z,3.90
2019-01-30T00:49:43.551Z,4.45
2019-01-30T00:52:10.767Z,3.90
2019-01-30T00:54:37.983Z,4.65
2019-01-30T00:57:05.208Z,3.67
2019-01-30T00:59:32.414Z,4.40
2019-01-30T01:01:59.643Z,4.03
2019-01-30T01:04:26.867Z,4.05
2019-01-30T01:06:54.066Z,4.03
2019-01-30T01:09:21.276Z,3.75
2019-01-30T01:11:48.502Z,3.47
2019-01-30T01:14:15.715Z,4.03
2019-01-30T01:16:43.008Z,4.80
2019-01-30T01:19:10.206Z,4.10
2019-01-30T01:21:37.419Z,4.15
2019-01-30T01:24:04.630Z,3.95
2019-01-30T01:26:31.844Z,4.12
2019-01-30T01:28:59.063Z,4.65
2019-01-30T01:31:26.274Z,3.80
2019-01-30T01:33:53.494Z,4.47
2019-01-30T01:36:20.723Z,4.85
2019-01-30T01:38:47.942Z,5.37
2019-01-30T01:41:15.162Z,4.40
2019-01-30T01:43:42.391Z,5.83
2019-01-30T01:46:09.609Z,5.67
2019-01-30T01:48:36.822Z,4.78
2019-01-30T01:51:04.039Z,5.03
2019-01-30T01:53:31.264Z,4.92
2019-01-30T01:55:58.486Z,3.95
2019-01-30T01:58:25.709Z,5.25
2019-01-30T02:00:52.990Z,4.65
2019-01-30T02:03:20.215Z,5.03
2019-01-30T02:05:47.453Z,4.03
2019-01-30T02:08:14.669Z,4.08
2019-01-30T02:10:41.882Z,3.90
2019-01-30T02:13:09.094Z,3.83
2019-01-30T02:15:36.310Z,3.83
2019-01-30T02:18:03.914Z,3.05
2019-01-30T02:20:32.090Z,3.05
2019-01-30T02:22:59.307Z,4.53
2019-01-30T02:25:26.597Z,4.37
2019-01-30T02:27:53.806Z,3.50
2019-01-30T02:30:25.214Z,4.05
2019-01-30T02:32:52.701Z,4.40
2019-01-30T02:35:21.212Z,3.85
2019-01-30T02:37:48.425Z,3.20
2019-01-30T02:40:17.009Z,3.85
2019-01-30T02:42:44.231Z,3.90
2019-01-30T02:45:13.059Z,3.45
2019-01-30T02:47:40.279Z,3.92
2019-01-30T02:50:09.169Z,4.30
2019-01-30T02:52:36.550Z,3.83
2019-01-30T02:55:04.738Z,3.20
2019-01-30T02:57:31.967Z,4.83
2019-01-30T02:59:59.182Z,3.45
2019-01-30T03:02:26.398Z,4.22
2019-01-30T03:04:53.622Z,3.90
2019-01-30T03:07:20.836Z,3.95
2019-01-30T03:09:48.050Z,3.75
2019-01-30T03:12:15.261Z,3.45
2019-01-30T03:14:42.479Z,3.95
2019-01-30T03:17:09.681Z,3.27
2019-01-30T03:19:36.894Z,2.92
2019-01-30T03:22:04.382Z,3.20
2019-01-30T03:24:31.590Z,3.55
2019-01-30T03:26:58.804Z,3.20
2019-01-30T03:29:26.026Z,4.03
2019-01-30T03:31:53.236Z,3.72
2019-01-30T03:34:20.450Z,3.65
2019-01-30T03:36:47.667Z,3.40
2019-01-30T03:39:14.938Z,3.42
2019-01-30T03:41:42.142Z,3.02
2019-01-30T03:44:09.353Z,4.20
2019-01-30T03:46:36.578Z,3.15
2019-01-30T03:49:03.846Z,2.92
2019-01-30T03:51:31.067Z,3.20
2019-01-30T03:53:58.287Z,2.50
2019-01-30T03:56:25.493Z,2.83
2019-01-30T03:58:52.699Z,2.55
2019-01-30T04:01:26.449Z,3.47
2019-01-30T04:03:49.087Z,3.83
2019-01-30T04:06:16.313Z,2.20
2019-01-30T04:08:43.530Z,4.25
2019-01-30T04:11:10.742Z,3.20
2019-01-30T04:13:37.951Z,2.40
2019-01-30T04:16:05.238Z,2.67
2019-01-30T04:18:32.447Z,2.85
2019-01-30T04:20:59.664Z,2.67
2019-01-30T04:23:26.878Z,2.35
2019-01-30T04:25:54.101Z,2.47
2019-01-30T04:28:21.307Z,2.87
2019-01-30T04:30:48.524Z,2.90
2019-01-30T04:33:15.809Z,3.02
2019-01-30T04:35:43.026Z,3.37
2019-01-30T04:38:10.238Z,4.00
2019-01-30T04:40:37.458Z,3.50
2019-01-30T04:43:04.667Z,2.70
2019-01-30T04:45:31.895Z,4.12
2019-01-30T04:47:59.103Z,2.70
2019-01-30T04:50:26.313Z,3.10
2019-01-30T04:52:53.532Z,2.83
2019-01-30T04:55:20.747Z,2.62
2019-01-30T04:57:47.962Z,2.65
2019-01-30T05:00:16.717Z,3.00
2019-01-30T05:02:43.947Z,2.98
2019-01-30T05:05:11.730Z,3.95
2019-01-30T05:07:39.011Z,3.02
2019-01-30T05:10:07.895Z,3.83
2019-01-30T05:12:35.114Z,3.45
2019-01-30T05:15:02.327Z,3.33
2019-01-30T05:17:29.547Z,2.25
2019-01-30T05:19:56.758Z,2.83
2019-01-30T05:22:23.983Z,2.95
2019-01-30T05:24:51.189Z,2.80
2019-01-30T05:27:18.406Z,2.95
2019-01-30T05:29:45.979Z,3.55
2019-01-30T05:32:13.289Z,3.08
2019-01-30T05:34:40.490Z,2.60
2019-01-30T05:37:07.703Z,3.83
2019-01-30T05:39:34.969Z,3.12
2019-01-30T05:42:02.210Z,3.67
2019-01-30T05:44:29.450Z,3.15
2019-01-30T05:46:56.667Z,3.33
2019-01-30T05:49:23.874Z,3.55
2019-01-30T05:51:51.099Z,3.25
2019-01-30T05:54:18.305Z,3.83
2019-01-30T05:56:45.510Z,3.60
2019-01-30T05:59:12.738Z,6.80
2019-01-30T06:01:39.950Z,3.67
2019-01-30T06:04:07.171Z,4.33
2019-01-30T06:06:34.378Z,3.92
2019-01-30T06:09:02.016Z,3.42
2019-01-30T06:11:29.226Z,3.98
2019-01-30T06:13:56.443Z,3.92
2019-01-30T06:16:23.654Z,4.35
2019-01-30T06:18:50.875Z,3.72
2019-01-30T06:21:18.088Z,2.85
2019-01-30T06:23:45.303Z,3.33
2019-01-30T06:26:12.890Z,3.77
2019-01-30T06:28:40.097Z,4.22
2019-01-30T06:31:07.301Z,3.55
2019-01-30T06:33:34.513Z,3.15
2019-01-30T06:36:01.727Z,3.83
2019-01-30T06:38:28.943Z,3.15
2019-01-30T06:40:56.172Z,3.47
2019-01-30T06:43:23.380Z,3.62
2019-01-30T06:45:50.582Z,3.35
2019-01-30T06:48:17.803Z,3.92
2019-01-30T06:50:45.015Z,3.60
2019-01-30T06:53:12.226Z,2.92
2019-01-30T06:55:39.437Z,3.75
2019-01-30T06:58:06.651Z,4.03
2019-01-30T07:00:33.870Z,3.65
2019-01-30T07:03:01.079Z,2.85
2019-01-30T07:05:28.294Z,4.12
2019-01-30T07:07:55.527Z,4.03
2019-01-30T07:10:23.918Z,3.17
2019-01-30T07:12:51.284Z,4.08
2019-01-30T07:15:18.767Z,3.55
2019-01-30T07:17:46.134Z,4.37
2019-01-30T07:20:14.126Z,3.98
2019-01-30T07:22:41.411Z,5.00
2019-01-30T07:25:10.307Z,3.45
2019-01-30T07:27:37.538Z,4.05
2019-01-30T07:30:06.302Z,4.80
2019-01-30T07:32:42.096Z,5.50
2019-01-30T07:35:02.468Z,5.30
2019-01-30T07:37:29.683Z,5.30
2019-01-30T07:39:56.915Z,5.97
2019-01-30T07:42:24.135Z,5.08
2019-01-30T07:44:51.364Z,3.83
2019-01-30T07:47:18.568Z,4.80
2019-01-30T07:49:45.785Z,4.78
2019-01-30T07:52:13.003Z,4.30
2019-01-30T07:54:40.229Z,4.75
2019-01-30T07:57:07.443Z,5.17
2019-01-30T07:59:34.683Z,9.43
2019-01-30T08:02:01.899Z,5.03
2019-01-30T08:04:29.455Z,4.12
2019-01-30T08:06:56.658Z,5.08
2019-01-30T08:09:23.883Z,3.95
2019-01-30T08:11:51.097Z,3.90
2019-01-30T08:14:18.318Z,4.90
2019-01-30T08:16:47.933Z,4.25
2019-01-30T08:19:14.466Z,5.65
2019-01-30T08:21:41.680Z,4.83
2019-01-30T08:24:08.916Z,6.97
2019-01-30T08:26:36.164Z,6.22
2019-01-30T08:29:04.120Z,6.42
2019-01-30T08:31:31.425Z,5.28
2019-01-30T08:33:58.669Z,4.55
2019-01-30T08:36:25.902Z,5.62
2019-01-30T08:38:53.121Z,4.85
2019-01-30T08:41:20.338Z,4.60
2019-01-30T08:43:47.550Z,3.95
2019-01-30T08:46:14.775Z,4.28
2019-01-30T08:48:42.063Z,3.45
2019-01-30T08:51:09.282Z,4.45
2019-01-30T08:53:36.498Z,4.55
2019-01-30T08:56:04.099Z,5.35
2019-01-30T08:58:31.298Z,7.03
2019-01-30T09:00:58.526Z,5.80
2019-01-30T09:03:25.743Z,6.25
2019-01-30T09:05:52.961Z,4.83
2019-01-30T09:08:20.186Z,4.45
2019-01-30T09:10:47.399Z,5.10
2019-01-30T09:13:14.610Z,4.58
2019-01-30T09:15:41.824Z,4.78
2019-01-30T09:18:09.038Z,5.28
2019-01-30T09:20:36.262Z,5.53
2019-01-30T09:23:03.483Z,4.55
2019-01-30T09:25:30.702Z,4.65
2019-01-30T09:27:58.783Z,4.50
2019-01-30T09:30:27.376Z,3.90
2019-01-30T09:32:55.528Z,3.40
2019-01-30T09:35:23.242Z,3.70
2019-01-30T09:37:50.455Z,4.12
2019-01-30T09:40:18.723Z,2.80
2019-01-30T09:42:45.949Z,2.92
2019-01-30T09:45:14.527Z,2.77
2019-01-30T09:47:41.775Z,3.92
2019-01-30T09:50:10.532Z,3.08
2019-01-30T09:52:37.734Z,2.67
2019-01-30T09:55:06.839Z,3.58
2019-01-30T09:57:34.054Z,2.05
2019-01-30T10:00:01.271Z,1.85
2019-01-30T10:02:28.484Z,2.02
2019-01-30T10:04:55.706Z,2.55
2019-01-30T10:07:22.918Z,2.70
2019-01-30T10:09:50.131Z,2.20
2019-01-30T10:12:17.409Z,1.50
2019-01-30T10:14:44.650Z,2.10
2019-01-30T10:17:11.872Z,1.85
2019-01-30T10:19:41.741Z,1.95
2019-01-30T10:22:08.017Z,1.70
2019-01-30T10:24:35.222Z,1.42
2019-01-30T10:27:02.446Z,1.72
2019-01-30T10:29:29.659Z,1.75
2019-01-30T10:31:56.878Z,1.40
2019-01-30T10:34:24.125Z,1.72
2019-01-30T10:36:51.347Z,1.60
2019-01-30T10:39:18.551Z,1.47
2019-01-30T10:41:45.771Z,1.67
2019-01-30T10:44:12.983Z,1.00
2019-01-30T10:46:40.198Z,1.20
2019-01-30T10:49:07.410Z,1.12
2019-01-30T10:51:34.631Z,1.35
2019-01-30T10:54:01.838Z,1.35
2019-01-30T10:56:29.059Z,1.72
2019-01-30T10:58:56.692Z,0.72
2019-01-30T11:01:23.902Z,0.82
2019-01-30T11:03:56.966Z,0.80
2019-01-30T11:06:20.066Z,0.70
2019-01-30T11:08:47.275Z,1.10
2019-01-30T11:11:14.503Z,1.15
2019-01-30T11:13:41.702Z,3.83
2019-01-30T11:16:08.931Z,0.40
2019-01-30T11:18:36.157Z,0.50
2019-01-30T11:21:05.881Z,0.40
2019-01-30T11:23:32.294Z,0.30
2019-01-30T11:25:59.502Z,0.35
2019-01-30T11:28:26.724Z,0.30
2019-01-30T11:30:53.930Z,0.50
2019-01-30T11:33:21.151Z,0.40
2019-01-30T11:35:48.367Z,0.40
2019-01-30T11:38:15.582Z,0.40
2019-01-30T11:40:42.789Z,0.30
2019-01-30T11:43:10.010Z,0.40
2019-01-30T11:45:38.386Z,0.40
2019-01-30T11:48:05.682Z,0.40
2019-01-30T11:50:32.912Z,0.30
2019-01-30T11:53:00.198Z,0.30
2019-01-30T11:55:27.403Z,0.30
2019-01-30T11:57:54.622Z,0.40
2019-01-30T12:00:24.547Z,0.33
2019-01-30T12:02:51.770Z,0.30
2019-01-30T12:05:18.991Z,0.30
2019-01-30T12:07:46.233Z,0.40
2019-01-30T12:10:14.098Z,0.40
2019-01-30T12:12:41.322Z,0.47
2019-01-30T12:15:13.131Z,0.40
2019-01-30T12:17:40.410Z,0.40
2019-01-30T12:20:09.163Z,0.60
2019-01-30T12:22:36.399Z,0.57
2019-01-30T12:25:04.776Z,0.30
2019-01-30T12:27:31.986Z,0.40
2019-01-30T12:29:59.203Z,0.40
2019-01-30T12:32:26.422Z,0.93
2019-01-30T12:34:53.651Z,0.50
2019-01-30T12:37:20.861Z,0.42
2019-01-30T12:39:48.087Z,0.50
2019-01-30T12:42:15.294Z,0.33
2019-01-30T12:44:42.524Z,0.30
2019-01-30T12:47:19.485Z,0.30
2019-01-30T12:49:38.675Z,0.40
2019-01-30T12:52:05.886Z,0.40
2019-01-30T12:54:33.111Z,0.50
2019-01-30T12:57:00.350Z,0.68
2019-01-30T12:59:27.554Z,0.50
2019-01-30T13:01:54.762Z,0.30
2019-01-30T13:04:21.986Z,0.45
2019-01-30T13:06:49.202Z,0.47
2019-01-30T13:09:16.442Z,0.50
2019-01-30T13:11:43.668Z,0.40
2019-01-30T13:14:10.893Z,0.50
2019-01-30T13:16:38.110Z,0.40
2019-01-30T13:19:05.402Z,0.40
2019-01-30T13:21:32.638Z,0.30
2019-01-30T13:23:59.850Z,0.53
2019-01-30T13:26:27.059Z,0.30
2019-01-30T13:28:54.278Z,0.45
2019-01-30T13:31:21.499Z,0.40
2019-01-30T13:33:48.715Z,0.40
2019-01-30T13:36:15.935Z,0.50
2019-01-30T13:38:43.156Z,0.50
2019-01-30T13:41:10.368Z,1.20
2019-01-30T13:43:37.598Z,0.53
2019-01-30T13:46:05.757Z,0.50
2019-01-30T13:48:33.095Z,0.70
2019-01-30T13:51:00.414Z,0.68
2019-01-30T13:53:27.616Z,0.50
2019-01-30T13:55:54.951Z,0.40
2019-01-30T13:58:22.115Z,0.40
2019-01-30T14:00:49.341Z,0.50
2019-01-30T14:03:16.555Z,0.68
2019-01-30T14:05:43.874Z,0.53
2019-01-30T14:08:11.344Z,0.47
2019-01-30T14:10:38.687Z,0.40
2019-01-30T14:13:05.962Z,0.47
2019-01-30T14:15:33.261Z,0.62
2019-01-30T14:18:00.474Z,0.45
2019-01-30T14:20:27.686Z,1.20
2019-01-30T14:22:54.919Z,0.35
2019-01-30T14:25:22.110Z,0.62
2019-01-30T14:27:49.351Z,0.50
2019-01-30T14:30:18.112Z,0.62
2019-01-30T14:32:45.312Z,0.40
2019-01-30T14:35:12.542Z,0.72
2019-01-30T14:37:39.748Z,0.40
2019-01-30T14:40:08.504Z,1.02
2019-01-30T14:42:35.730Z,0.93
2019-01-30T14:45:03.978Z,0.50
2019-01-30T14:47:31.338Z,0.40
2019-01-30T14:49:58.610Z,0.55
2019-01-30T14:52:25.802Z,1.30
2019-01-30T14:54:53.038Z,0.55
2019-01-30T14:57:20.236Z,0.98
2019-01-30T14:59:47.445Z,0.57
2019-01-30T15:02:14.695Z,0.65
2019-01-30T15:04:41.900Z,0.70
2019-01-30T15:07:09.112Z,0.60
2019-01-30T15:09:36.356Z,0.57
2019-01-30T15:12:04.112Z,0.70
2019-01-30T15:14:31.401Z,0.60
2019-01-30T15:16:58.614Z,0.50
2019-01-30T15:19:25.819Z,0.40
2019-01-30T15:21:53.041Z,0.80
2019-01-30T15:24:20.258Z,0.60
2019-01-30T15:26:47.478Z,0.50
2019-01-30T15:29:14.682Z,0.50
2019-01-30T15:31:41.905Z,1.15
2019-01-30T15:34:09.127Z,0.50
2019-01-30T15:36:36.338Z,0.40
2019-01-30T15:39:05.088Z,0.50
2019-01-30T15:41:32.307Z,0.50
2019-01-30T15:43:59.526Z,0.50
2019-01-30T15:46:26.752Z,0.60
2019-01-30T15:48:53.985Z,0.80
2019-01-30T15:51:21.208Z,0.60
2019-01-30T15:53:48.417Z,0.40
2019-01-30T15:56:15.638Z,0.37
2019-01-30T15:58:42.851Z,0.40
2019-01-30T16:01:11.338Z,0.50
2019-01-30T16:03:38.554Z,0.70
2019-01-30T16:06:05.766Z,0.60
2019-01-30T16:08:32.979Z,0.65
2019-01-30T16:11:00.239Z,0.50
2019-01-30T16:13:27.534Z,0.62
2019-01-30T16:15:56.287Z,0.50
2019-01-30T16:18:23.512Z,0.57
2019-01-30T16:20:50.717Z,0.50
2019-01-30T16:23:17.944Z,0.40
2019-01-30T16:25:45.154Z,0.60
2019-01-30T16:28:12.369Z,0.85
2019-01-30T16:30:42.229Z,0.45
2019-01-30T16:33:08.530Z,0.85
2019-01-30T16:35:35.752Z,0.50
2019-01-30T16:38:03.043Z,0.50
2019-01-30T16:40:30.259Z,0.42
2019-01-30T16:42:57.480Z,1.45
2019-01-30T16:45:31.455Z,0.50
2019-01-30T16:47:58.676Z,0.80
2019-01-30T16:50:25.892Z,0.68
2019-01-30T16:52:53.182Z,0.85
2019-01-30T16:55:20.861Z,0.68
2019-01-30T16:57:48.147Z,0.45
2019-01-30T17:00:19.574Z,0.60
2019-01-30T17:02:46.803Z,0.60
2019-01-30T17:05:14.887Z,0.72
2019-01-30T17:07:42.119Z,0.72
2019-01-30T17:10:10.984Z,0.60
2019-01-30T17:12:38.270Z,0.78
2019-01-30T17:15:07.032Z,1.02
2019-01-30T17:17:34.257Z,1.55
2019-01-30T17:20:01.446Z,0.78
2019-01-30T17:22:28.672Z,0.80
2019-01-30T17:24:55.884Z,0.90
2019-01-30T17:27:23.106Z,1.12
2019-01-30T17:29:50.321Z,0.98
2019-01-30T17:32:17.531Z,1.07
2019-01-30T17:34:44.746Z,0.70
2019-01-30T17:37:12.307Z,0.90
2019-01-30T17:39:39.659Z,0.42
2019-01-30T17:42:06.923Z,1.00
2019-01-30T17:44:34.146Z,1.27
2019-01-30T17:47:01.358Z,1.32
2019-01-30T17:49:28.575Z,0.80
2019-01-30T17:51:55.782Z,0.70
2019-01-30T17:54:23.002Z,0.90
2019-01-30T17:56:50.215Z,1.30
2019-01-30T17:59:17.434Z,1.02
2019-01-30T18:01:44.654Z,0.70
2019-01-30T18:04:11.880Z,0.78
2019-01-30T18:06:39.098Z,1.15
2019-01-30T18:09:07.280Z,0.90
2019-01-30T18:11:34.494Z,0.90
2019-01-30T18:14:01.723Z,1.52
2019-01-30T18:16:28.941Z,1.25
2019-01-30T18:18:56.170Z,1.02
2019-01-30T18:21:23.383Z,0.78
2019-01-30T18:23:50.611Z,1.10
2019-01-30T18:26:17.826Z,1.00
2019-01-30T18:28:47.833Z,0.57
2019-01-30T18:31:13.981Z,1.15
2019-01-30T18:33:41.196Z,0.95
2019-01-30T18:36:08.407Z,1.47
2019-01-30T18:38:36.042Z,1.47
2019-01-30T18:41:03.806Z,0.65
2019-01-30T18:43:31.079Z,1.27
2019-01-30T18:45:58.499Z,1.05
2019-01-30T18:48:27.147Z,0.85
2019-01-30T18:50:56.823Z,0.80
2019-01-30T18:53:23.806Z,1.67
2019-01-30T18:55:51.233Z,0.95
2019-01-30T18:58:18.470Z,1.15
2019-01-30T19:00:45.699Z,1.60
2019-01-30T19:03:12.983Z,0.80
2019-01-30T19:05:40.597Z,1.27
2019-01-30T19:08:07.810Z,1.40
2019-01-30T19:10:35.050Z,1.00
2019-01-30T19:13:02.266Z,1.55
2019-01-30T19:15:30.198Z,0.90
2019-01-30T19:17:57.402Z,0.53
2019-01-30T19:20:31.693Z,1.57
2019-01-30T19:22:58.907Z,1.15
2019-01-30T19:25:26.122Z,1.22
2019-01-30T19:27:56.006Z,1.32
2019-01-30T19:30:23.831Z,1.20
2019-01-30T19:32:51.078Z,0.70
2019-01-30T19:35:18.394Z,1.20
2019-01-30T19:37:45.605Z,1.85
2019-01-30T19:43:14.498Z,0.62
2019-01-30T19:48:29.741Z,1.25
2019-01-30T19:54:23.542Z,1.02
2019-01-30T20:00:17.039Z,0.70
2019-01-30T20:02:44.262Z,1.05
2019-01-30T20:05:13.162Z,0.82
2019-01-30T20:07:40.438Z,1.70
2019-01-30T20:10:09.431Z,1.40
2019-01-30T20:12:36.639Z,1.30
2019-01-30T20:15:05.730Z,1.00
2019-01-30T20:17:32.938Z,1.15
2019-01-30T20:20:00.571Z,1.10
2019-01-30T20:22:27.778Z,1.30
2019-01-30T20:24:54.998Z,0.60
2019-01-30T20:27:22.215Z,1.07
2019-01-30T20:29:49.440Z,0.93
2019-01-30T20:32:16.650Z,1.30
2019-01-30T20:34:43.866Z,1.02
2019-01-30T20:37:11.078Z,1.32
2019-01-30T20:39:38.286Z,0.68
2019-01-30T20:42:05.600Z,1.60
2019-01-30T20:44:32.865Z,1.50
2019-01-30T20:47:00.085Z,1.00
2019-01-30T20:49:27.312Z,1.00
2019-01-30T20:51:54.524Z,1.10
2019-01-30T20:54:21.744Z,1.10
2019-01-30T20:56:48.954Z,0.90
2019-01-30T20:59:16.177Z,2.20
2019-01-30T21:01:43.390Z,1.87
2019-01-30T21:04:10.611Z,1.98
2019-01-30T21:06:37.838Z,3.65
2019-01-30T21:09:06.433Z,2.08
2019-01-30T21:11:33.626Z,1.87
2019-01-30T21:14:00.838Z,1.30
2019-01-30T21:16:28.062Z,3.20
2019-01-30T21:18:55.271Z,2.92
2019-01-30T21:21:22.494Z,1.75
2019-01-30T21:23:49.706Z,2.00
2019-01-30T21:26:16.926Z,1.90
2019-01-30T21:28:44.134Z,2.00
2019-01-30T21:31:11.354Z,2.15
2019-01-30T21:33:38.566Z,1.75
2019-01-30T21:36:05.787Z,2.00
2019-01-30T21:38:33.005Z,1.52
2019-01-30T21:41:00.234Z,2.50
2019-01-30T21:43:27.823Z,1.62
2019-01-30T21:45:56.791Z,1.50
2019-01-30T21:48:24.031Z,1.67
2019-01-30T21:50:51.626Z,2.30
2019-01-30T21:53:18.833Z,2.58
2019-01-30T21:55:46.119Z,2.52
2019-01-30T21:58:13.347Z,1.90
2019-01-30T22:00:40.570Z,2.42
2019-01-30T22:03:07.791Z,1.90
2019-01-30T22:05:35.021Z,1.60
2019-01-30T22:08:02.234Z,1.92
2019-01-30T22:10:29.718Z,1.60
2019-01-30T22:12:56.927Z,2.10
2019-01-30T22:15:24.435Z,2.40
2019-01-30T22:17:51.677Z,2.10
2019-01-30T22:20:19.854Z,1.92
2019-01-30T22:22:47.074Z,1.40
2019-01-30T22:25:20.424Z,2.10
2019-01-30T22:27:44.695Z,2.00
2019-01-30T22:30:13.473Z,1.62
2019-01-30T22:32:40.686Z,1.95
2019-01-30T22:35:08.974Z,2.80
2019-01-30T22:37:36.190Z,2.62
2019-01-30T22:40:04.570Z,1.30
2019-01-30T22:42:31.783Z,1.65
2019-01-30T22:44:59.010Z,2.60
2019-01-30T22:47:26.234Z,1.30
2019-01-30T22:49:53.444Z,2.05
2019-01-30T22:52:20.662Z,2.00
2019-01-30T22:54:47.892Z,1.85
2019-01-30T22:57:15.116Z,2.17
2019-01-30T22:59:42.336Z,2.50
2019-01-30T23:02:09.618Z,2.00
2019-01-30T23:04:41.271Z,1.35
2019-01-30T23:07:10.038Z,2.05
2019-01-30T23:09:39.131Z,1.87
2019-01-30T23:12:07.882Z,2.05
2019-01-30T23:14:36.633Z,1.72
2019-01-30T23:17:11.088Z,1.27
2019-01-30T23:19:45.737Z,2.12
2019-01-30T23:22:17.391Z,2.65
2019-01-30T23:24:52.274Z,1.65
2019-01-30T23:27:21.030Z,1.55
2019-01-30T23:30:04.761Z,1.75
2019-01-30T23:32:33.527Z,2.40
2019-01-30T23:35:18.685Z,2.77
2019-01-30T23:37:47.446Z,2.05
2019-01-30T23:40:16.194Z,1.95
2019-01-30T23:43:03.166Z,1.65
2019-01-30T23:45:31.926Z,2.52
2019-01-30T23:48:09.457Z,1.60
2019-01-30T23:50:38.201Z,1.80
2019-01-30T23:53:09.612Z,1.60
2019-01-30T23:55:38.388Z,2.00
2019-01-30T23:58:16.050Z,1.20
